createdAt,value
2022-12-04T00:05:43.609Z,41.50
2022-12-04T00:15:50.796Z,37.50
2022-12-04T00:26:01.644Z,36.60
2022-12-04T00:36:06.466Z,36.20
2022-12-04T00:46:13.923Z,42.00
2022-12-04T00:56:23.915Z,35.40
2022-12-04T01:06:33.407Z,30.40
2022-12-04T01:16:41.864Z,32.70
2022-12-04T01:26:49.193Z,29.30
2022-12-04T01:36:56.195Z,30.60
2022-12-04T01:47:03.975Z,37.10
2022-12-04T01:57:13.352Z,38.70
2022-12-04T02:07:20.707Z,34.30
2022-12-04T02:17:27.296Z,30.20
2022-12-04T02:27:45.266Z,31.80
2022-12-04T02:37:57.208Z,31.20
2022-12-04T02:48:04.799Z,30.20
2022-12-04T02:58:12.561Z,30.10
2022-12-04T03:08:20.230Z,38.50
2022-12-04T03:18:31.228Z,35.60
2022-12-04T03:28:44.302Z,29.60
2022-12-04T03:38:54.192Z,28.40
2022-12-04T03:49:07.793Z,25.00
2022-12-04T03:59:21.280Z,25.80
2022-12-04T04:09:30.375Z,37.00
2022-12-04T04:19:57.953Z,25.20
2022-12-04T04:30:06.154Z,20.20
2022-12-04T04:40:11.135Z,23.20
2022-12-04T04:50:21.164Z,20.50
2022-12-04T05:00:28.576Z,19.10
2022-12-04T05:10:35.492Z,19.00
2022-12-04T05:20:42.834Z,17.60
2022-12-04T05:30:56.328Z,20.40
2022-12-04T05:41:05.975Z,15.60
2022-12-04T06:01:19.025Z,19.00
2022-12-04T06:21:37.675Z,21.30
2022-12-04T06:31:45.063Z,19.90
2022-12-04T06:41:52.202Z,20.30
2022-12-04T06:51:59.266Z,21.10
2022-12-04T07:02:06.373Z,22.50
2022-12-04T07:12:13.707Z,22.30
2022-12-04T07:22:21.345Z,28.40
2022-12-04T07:32:28.659Z,25.10
2022-12-04T07:42:35.761Z,27.20
2022-12-04T07:52:43.293Z,25.30
2022-12-04T08:02:50.809Z,22.70
2022-12-04T08:12:58.601Z,24.50
2022-12-04T08:23:05.734Z,25.10
2022-12-04T08:33:13.254Z,24.10
2022-12-04T08:43:20.459Z,20.60
2022-12-04T08:53:27.996Z,24.30
2022-12-04T09:03:36.254Z,24.20
2022-12-04T09:13:45.038Z,23.10
2022-12-04T09:23:53.023Z,29.50
2022-12-04T09:34:00.843Z,22.00
2022-12-04T09:44:11.809Z,26.20
2022-12-04T09:54:21.964Z,25.90
2022-12-04T10:04:29.895Z,28.10
2022-12-04T10:14:42.910Z,28.00
2022-12-04T10:24:53.775Z,33.20
2022-12-04T10:35:04.653Z,35.00
2022-12-04T10:45:12.090Z,25.90
2022-12-04T10:55:29.889Z,24.00
2022-12-04T11:05:40.090Z,21.10
2022-12-04T11:15:48.761Z,26.00
2022-12-04T11:26:05.613Z,36.20
2022-12-04T11:36:17.810Z,26.90
2022-12-04T11:46:25.327Z,22.90
2022-12-04T11:56:30.975Z,23.40
2022-12-04T12:06:38.895Z,23.70
2022-12-04T12:27:05.773Z,27.00
2022-12-04T12:37:13.158Z,25.60
2022-12-04T12:47:17.704Z,25.70
2022-12-04T12:57:32.549Z,25.70
2022-12-04T13:07:40.766Z,28.60
2022-12-04T13:17:51.515Z,24.20
2022-12-04T13:27:59.545Z,25.00
2022-12-04T13:38:10.243Z,35.00
2022-12-04T13:48:27.780Z,28.90
2022-12-04T13:58:37.674Z,26.70
2022-12-04T14:08:46.344Z,26.20
2022-12-04T14:29:07.173Z,37.50
2022-12-04T14:39:13.130Z,32.20
2022-12-04T14:49:28.573Z,25.30
2022-12-04T14:59:43.002Z,23.60
2022-12-04T15:20:22.774Z,26.20
2022-12-04T15:30:30.191Z,28.10
2022-12-04T15:40:37.697Z,26.90
2022-12-04T15:50:45.339Z,27.20
2022-12-04T16:00:55.551Z,29.60
2022-12-04T16:11:05.626Z,29.60
2022-12-04T16:21:15.376Z,32.60
2022-12-04T16:31:26.870Z,32.70
2022-12-04T16:41:34.489Z,31.10
2022-12-04T16:51:41.627Z,28.80
2022-12-04T17:01:53.724Z,33.20
2022-12-04T17:12:01.104Z,29.70
2022-12-04T17:22:08.450Z,27.60
2022-12-04T17:32:16.073Z,30.50
2022-12-04T17:42:22.180Z,29.00
2022-12-04T17:52:31.294Z,30.20
2022-12-04T18:02:39.207Z,30.10
2022-12-04T18:12:46.404Z,29.10
2022-12-04T18:22:53.514Z,26.50
2022-12-04T18:33:00.668Z,24.20
2022-12-04T18:43:08.308Z,27.00
2022-12-04T18:53:16.228Z,30.50
2022-12-04T19:03:23.764Z,27.10
2022-12-04T19:13:31.119Z,22.90
2022-12-04T19:23:38.668Z,26.50
2022-12-04T19:33:46.061Z,22.70
2022-12-04T19:43:56.749Z,25.70
2022-12-04T19:54:04.845Z,26.00
2022-12-04T20:04:12.704Z,26.10
2022-12-04T20:14:20.259Z,24.20
2022-12-04T20:24:27.685Z,25.10
2022-12-04T20:34:38.787Z,24.30
2022-12-04T20:44:49.134Z,21.90
2022-12-04T20:54:56.303Z,20.90
2022-12-04T21:05:04.073Z,30.70
2022-12-04T21:15:28.439Z,24.00
2022-12-04T21:25:37.402Z,28.50
2022-12-04T21:35:43.753Z,23.30
2022-12-04T21:45:57.802Z,23.00
2022-12-04T21:56:05.058Z,24.90
2022-12-04T22:06:12.740Z,21.60
2022-12-04T22:16:28.156Z,27.50
2022-12-04T22:26:36.643Z,26.50
2022-12-04T22:36:43.920Z,25.30
2022-12-04T22:46:50.162Z,29.80
2022-12-04T22:56:57.297Z,26.00
2022-12-04T23:07:04.569Z,22.30
2022-12-04T23:17:10.844Z,21.90
2022-12-04T23:27:17.970Z,24.10
2022-12-04T23:37:25.112Z,25.50
2022-12-04T23:47:32.147Z,24.20
2022-12-04T23:57:39.246Z,22.90
